createdAt,value
2022-09-20T00:00:49.300Z,90.81
2022-09-20T00:01:49.258Z,90.66
2022-09-20T00:02:49.271Z,90.00
2022-09-20T00:03:49.276Z,90.00
2022-09-20T00:04:49.328Z,89.24
2022-09-20T00:05:49.297Z,91.66
2022-09-20T00:06:49.310Z,93.18
2022-09-20T00:07:49.318Z,94.98
2022-09-20T00:08:49.335Z,96.59
2022-09-20T00:09:49.340Z,96.12
2022-09-20T00:10:49.370Z,96.12
2022-09-20T00:11:49.355Z,95.46
2022-09-20T00:12:49.367Z,94.79
2022-09-20T00:13:49.380Z,94.23
2022-09-20T00:14:49.395Z,94.42
2022-09-20T00:15:49.400Z,93.94
2022-09-20T00:16:49.473Z,94.32
2022-09-20T00:17:49.414Z,93.94
2022-09-20T00:18:49.425Z,93.94
2022-09-20T00:19:49.434Z,93.37
2022-09-20T00:20:49.445Z,93.65
2022-09-20T00:21:49.451Z,93.37
2022-09-20T00:22:49.465Z,92.23
2022-09-20T00:23:49.477Z,92.80
2022-09-20T00:24:49.482Z,92.23
2022-09-20T00:25:49.501Z,92.61
2022-09-20T00:26:49.546Z,92.23
2022-09-20T00:27:49.512Z,92.23
2022-09-20T00:28:49.532Z,92.52
2022-09-20T00:29:49.542Z,92.04
2022-09-20T00:30:49.541Z,91.66
2022-09-20T00:31:49.628Z,91.56
2022-09-20T00:32:49.563Z,91.28
2022-09-20T00:33:49.573Z,91.38
2022-09-20T00:34:49.576Z,91.56
2022-09-20T00:35:49.598Z,91.66
2022-09-20T00:36:49.600Z,91.38
2022-09-20T00:37:49.608Z,94.42
2022-09-20T00:38:49.620Z,96.69
2022-09-20T00:39:49.631Z,97.07
2022-09-20T00:40:49.637Z,96.41
2022-09-20T00:41:49.644Z,96.88
2022-09-20T00:42:49.675Z,97.07
2022-09-20T00:43:49.668Z,96.69
2022-09-20T00:44:49.673Z,94.98
2022-09-20T00:45:49.786Z,93.94
2022-09-20T00:46:49.690Z,92.71
2022-09-20T00:47:49.704Z,92.52
2022-09-20T00:48:49.717Z,92.33
2022-09-20T00:49:49.719Z,91.56
2022-09-20T00:50:49.746Z,90.90
2022-09-20T00:51:49.739Z,91.19
2022-09-20T00:52:49.749Z,91.19
2022-09-20T00:53:49.758Z,90.81
2022-09-20T00:54:49.770Z,90.52
2022-09-20T00:55:49.777Z,90.52
2022-09-20T00:56:49.785Z,90.62
2022-09-20T00:57:49.794Z,90.43
2022-09-20T00:58:49.836Z,91.38
2022-09-20T00:59:49.816Z,90.81
2022-09-20T01:00:49.904Z,90.33
2022-09-20T01:01:50.137Z,89.86
2022-09-20T01:02:49.945Z,90.14
2022-09-20T01:03:49.852Z,89.48
2022-09-20T01:04:49.860Z,90.05
2022-09-20T01:05:49.870Z,89.76
2022-09-20T01:06:49.880Z,89.86
2022-09-20T01:07:49.890Z,90.52
2022-09-20T01:08:49.899Z,90.62
2022-09-20T01:09:49.912Z,90.90
2022-09-20T01:10:49.916Z,91.38
2022-09-20T01:11:49.926Z,91.47
2022-09-20T01:12:49.942Z,92.23
2022-09-20T01:13:49.946Z,92.90
2022-09-20T01:14:49.980Z,93.46
2022-09-20T01:15:49.964Z,93.46
2022-09-20T01:16:50.012Z,93.56
2022-09-20T01:17:49.981Z,93.84
2022-09-20T01:18:49.995Z,94.32
2022-09-20T01:19:50.000Z,94.60
2022-09-20T01:20:50.011Z,95.17
2022-09-20T01:21:50.017Z,95.46
2022-09-20T01:22:50.036Z,94.89
2022-09-20T01:23:50.039Z,94.51
2022-09-20T01:24:50.048Z,94.23
2022-09-20T01:25:50.062Z,94.32
2022-09-20T01:26:50.067Z,93.56
2022-09-20T01:27:50.077Z,94.03
2022-09-20T01:28:50.086Z,94.23
2022-09-20T01:29:50.194Z,94.32
2022-09-20T01:30:50.127Z,95.17
2022-09-20T01:31:50.205Z,95.65
2022-09-20T01:32:50.127Z,96.12
2022-09-20T01:33:50.130Z,95.84
2022-09-20T01:34:50.146Z,95.93
2022-09-20T01:35:50.163Z,95.36
2022-09-20T01:36:50.162Z,95.17
2022-09-20T01:37:50.170Z,94.56
2022-09-20T01:38:50.183Z,94.27
2022-09-20T01:39:50.189Z,94.60
2022-09-20T01:40:50.201Z,94.46
2022-09-20T01:41:50.212Z,94.93
2022-09-20T01:42:50.214Z,95.65
2022-09-20T01:43:50.233Z,96.12
2022-09-20T01:44:50.232Z,95.46
2022-09-20T01:45:50.312Z,94.79
2022-09-20T01:46:50.286Z,94.60
2022-09-20T01:47:50.265Z,94.42
2022-09-20T01:48:50.270Z,94.32
2022-09-20T01:49:50.284Z,94.13
2022-09-20T01:50:50.340Z,94.65
2022-09-20T01:51:50.307Z,95.17
2022-09-20T01:52:50.309Z,95.55
2022-09-20T01:53:50.318Z,95.17
2022-09-20T01:54:50.329Z,95.03
2022-09-20T01:55:50.337Z,95.12
2022-09-20T01:56:50.349Z,95.12
2022-09-20T01:57:50.356Z,94.51
2022-09-20T01:59:01.934Z,94.42
2022-09-20T01:59:50.374Z,94.32
2022-09-20T02:00:50.433Z,93.80
2022-09-20T02:01:50.392Z,93.80
2022-09-20T02:02:50.538Z,93.18
2022-09-20T02:03:50.412Z,93.56
2022-09-20T02:04:50.423Z,92.80
2022-09-20T02:05:50.436Z,92.85
2022-09-20T02:06:50.452Z,92.42
2022-09-20T02:07:50.471Z,92.23
2022-09-20T02:08:50.462Z,92.80
2022-09-20T02:09:50.466Z,92.61
2022-09-20T02:10:50.475Z,92.42
2022-09-20T02:11:50.485Z,91.94
2022-09-20T02:12:50.496Z,92.66
2022-09-20T02:13:50.504Z,92.33
2022-09-20T02:14:50.510Z,91.90
2022-09-20T02:15:50.521Z,92.28
2022-09-20T02:16:50.663Z,91.99
2022-09-20T02:17:50.548Z,92.66
2022-09-20T02:18:50.572Z,92.09
2022-09-20T02:19:50.557Z,92.09
2022-09-20T02:20:50.569Z,92.18
2022-09-20T02:21:50.574Z,92.18
2022-09-20T02:22:50.655Z,92.47
2022-09-20T02:23:50.595Z,93.51
2022-09-20T02:24:50.608Z,93.04
2022-09-20T02:25:50.611Z,92.94
2022-09-20T02:26:50.621Z,92.85
2022-09-20T02:27:50.631Z,92.57
2022-09-20T02:28:50.642Z,92.94
2022-09-20T02:29:50.647Z,93.41
2022-09-20T02:30:50.659Z,93.41
2022-09-20T02:31:50.778Z,93.32
2022-09-20T02:32:50.677Z,93.13
2022-09-20T02:33:50.689Z,92.94
2022-09-20T02:34:50.720Z,92.76
2022-09-20T02:35:50.703Z,93.13
2022-09-20T02:36:50.714Z,93.13
2022-09-20T02:37:50.723Z,92.94
2022-09-20T02:38:50.735Z,92.28
2022-09-20T02:39:50.746Z,92.38
2022-09-20T02:40:50.747Z,92.76
2022-09-20T02:41:50.758Z,92.47
2022-09-20T02:42:50.768Z,92.76
2022-09-20T02:43:50.778Z,93.04
2022-09-20T02:44:50.786Z,93.61
2022-09-20T02:45:50.860Z,92.76
2022-09-20T02:46:50.802Z,93.23
2022-09-20T02:47:50.810Z,93.13
2022-09-20T02:48:50.822Z,93.80
2022-09-20T02:49:50.831Z,93.80
2022-09-20T02:50:50.862Z,93.41
2022-09-20T02:51:50.860Z,93.41
2022-09-20T02:52:50.859Z,92.94
2022-09-20T02:53:50.868Z,93.70
2022-09-20T02:54:50.874Z,93.61
2022-09-20T02:55:50.884Z,94.27
2022-09-20T02:56:50.891Z,93.70
2022-09-20T02:57:50.900Z,93.61
2022-09-20T02:58:50.911Z,93.70
2022-09-20T02:59:50.920Z,92.47
2022-09-20T03:00:50.981Z,92.66
2022-09-20T03:01:51.014Z,92.85
2022-09-20T03:02:50.944Z,93.51
2022-09-20T03:03:50.955Z,92.76
2022-09-20T03:04:50.970Z,93.41
2022-09-20T03:05:50.975Z,93.41
2022-09-20T03:06:51.032Z,93.41
2022-09-20T03:07:50.992Z,94.37
2022-09-20T03:08:50.999Z,94.18
2022-09-20T03:09:51.011Z,94.18
2022-09-20T03:10:51.019Z,94.37
2022-09-20T03:11:51.028Z,93.99
2022-09-20T03:12:51.036Z,94.27
2022-09-20T03:13:51.147Z,93.89
2022-09-20T03:14:51.061Z,94.65
2022-09-20T03:15:51.068Z,95.22
2022-09-20T03:16:52.448Z,94.46
2022-09-20T03:17:51.080Z,94.27
2022-09-20T03:18:51.087Z,94.46
2022-09-20T03:19:51.102Z,95.31
2022-09-20T03:20:51.112Z,95.60
2022-09-20T03:21:51.116Z,96.08
2022-09-20T03:22:51.157Z,95.60
2022-09-20T03:23:51.244Z,96.03
2022-09-20T03:24:51.144Z,95.98
2022-09-20T03:25:51.150Z,95.74
2022-09-20T03:26:51.157Z,95.98
2022-09-20T03:27:51.169Z,97.54
2022-09-20T03:28:51.218Z,97.12
2022-09-20T03:29:51.185Z,98.11
2022-09-20T03:30:51.197Z,97.97
2022-09-20T03:31:51.266Z,97.59
2022-09-20T03:32:51.212Z,97.59
2022-09-20T03:33:51.221Z,97.12
2022-09-20T03:34:51.228Z,97.83
2022-09-20T03:35:51.238Z,98.63
2022-09-20T03:36:51.246Z,98.63
2022-09-20T03:37:51.255Z,98.63
2022-09-20T03:38:51.286Z,99.01
2022-09-20T03:39:51.272Z,99.20
2022-09-20T03:40:51.388Z,99.49
2022-09-20T03:41:51.288Z,99.58
2022-09-20T03:42:51.301Z,99.99
2022-09-20T03:43:51.311Z,99.99
2022-09-20T03:44:51.318Z,99.68
2022-09-20T03:45:51.383Z,99.49
2022-09-20T03:46:51.336Z,99.49
2022-09-20T03:47:51.338Z,98.63
2022-09-20T03:48:51.352Z,98.44
2022-09-20T03:49:51.359Z,97.78
2022-09-20T03:50:51.369Z,97.78
2022-09-20T03:51:51.380Z,98.02
2022-09-20T03:52:51.387Z,98.73
2022-09-20T03:53:51.497Z,99.49
2022-09-20T03:54:51.425Z,99.99
2022-09-20T03:55:51.413Z,99.99
2022-09-20T03:56:51.421Z,99.99
2022-09-20T03:57:51.432Z,99.99
2022-09-20T03:58:51.444Z,99.99
2022-09-20T03:59:51.445Z,99.99
2022-09-20T04:00:51.499Z,99.99
2022-09-20T04:01:51.533Z,99.99
2022-09-20T04:02:51.475Z,99.91
2022-09-20T04:03:51.480Z,99.99
2022-09-20T04:04:51.494Z,99.99
2022-09-20T04:05:51.499Z,99.99
2022-09-20T04:06:51.506Z,99.99
2022-09-20T04:07:51.518Z,99.99
2022-09-20T04:08:51.523Z,99.99
2022-09-20T04:09:51.530Z,99.99
2022-09-20T04:10:51.571Z,99.99
2022-09-20T04:11:51.555Z,99.99
2022-09-20T04:12:51.563Z,99.99
2022-09-20T04:13:51.677Z,99.99
2022-09-20T04:14:51.571Z,99.99
2022-09-20T04:15:51.582Z,99.99
2022-09-20T04:16:51.753Z,99.99
2022-09-20T04:17:51.598Z,99.99
2022-09-20T04:18:51.709Z,99.82
2022-09-20T04:19:51.617Z,99.91
2022-09-20T04:20:51.627Z,99.99
2022-09-20T04:21:51.641Z,99.06
2022-09-20T04:22:51.645Z,98.21
2022-09-20T04:23:51.652Z,97.83
2022-09-20T04:24:51.663Z,97.73
2022-09-20T04:25:51.666Z,98.02
2022-09-20T04:26:51.700Z,97.92
2022-09-20T04:27:51.687Z,97.73
2022-09-20T04:28:51.696Z,97.83
2022-09-20T04:29:51.701Z,98.39
2022-09-20T04:30:51.708Z,97.54
2022-09-20T04:31:54.123Z,97.54
2022-09-20T04:32:51.737Z,97.64
2022-09-20T04:33:51.748Z,97.92
2022-09-20T04:34:51.745Z,98.39
2022-09-20T04:35:51.752Z,98.49
2022-09-20T04:36:51.763Z,97.64
2022-09-20T04:37:51.788Z,97.83
2022-09-20T04:38:51.778Z,97.92
2022-09-20T04:39:51.788Z,97.92
2022-09-20T04:40:51.798Z,97.35
2022-09-20T04:41:51.806Z,97.35
2022-09-20T04:42:51.837Z,97.64
2022-09-20T04:43:51.824Z,97.45
2022-09-20T04:44:51.829Z,96.97
2022-09-20T04:45:51.899Z,96.41
2022-09-20T04:46:55.920Z,96.41
2022-09-20T04:47:51.861Z,96.59
2022-09-20T04:48:51.876Z,95.55
2022-09-20T04:49:51.873Z,95.65
2022-09-20T04:50:51.882Z,95.79
2022-09-20T04:51:51.891Z,94.89
2022-09-20T04:52:51.899Z,95.36
2022-09-20T04:53:51.908Z,94.37
2022-09-20T04:54:51.964Z,94.32
2022-09-20T04:55:51.927Z,93.75
2022-09-20T04:56:51.939Z,94.46
2022-09-20T04:57:51.947Z,95.31
2022-09-20T04:58:51.974Z,94.37
2022-09-20T04:59:51.959Z,93.41
2022-09-20T05:00:52.002Z,93.13
2022-09-20T05:01:52.040Z,92.99
2022-09-20T05:02:51.980Z,94.04
2022-09-20T05:03:51.993Z,94.13
2022-09-20T05:04:52.000Z,93.75
2022-09-20T05:05:52.009Z,93.65
2022-09-20T05:06:52.019Z,93.27
2022-09-20T05:07:52.026Z,93.80
2022-09-20T05:08:56.628Z,93.56
2022-09-20T05:09:52.045Z,93.27
2022-09-20T05:10:52.063Z,92.80
2022-09-20T05:11:52.070Z,92.23
2022-09-20T05:12:52.073Z,92.61
2022-09-20T05:13:52.079Z,92.61
2022-09-20T05:14:52.163Z,94.42
2022-09-20T05:15:52.096Z,95.36
2022-09-20T05:16:52.214Z,95.74
2022-09-20T05:17:52.107Z,95.84
2022-09-20T05:18:52.234Z,95.45
2022-09-20T05:19:52.131Z,95.65
2022-09-20T05:20:52.136Z,95.17
2022-09-20T05:21:52.152Z,95.55
2022-09-20T05:22:52.154Z,94.51
2022-09-20T05:23:52.163Z,93.65
2022-09-20T05:24:52.174Z,93.56
2022-09-20T05:25:52.181Z,93.27
2022-09-20T05:26:52.188Z,93.27
2022-09-20T05:27:52.195Z,93.27
2022-09-20T05:28:52.201Z,92.61
2022-09-20T05:29:52.217Z,92.42
2022-09-20T05:30:52.263Z,91.66
2022-09-20T05:31:52.261Z,91.00
2022-09-20T05:32:52.336Z,90.81
2022-09-20T05:33:52.247Z,90.24
2022-09-20T05:34:52.254Z,89.96
2022-09-20T05:35:52.266Z,89.58
2022-09-20T05:36:52.270Z,89.48
2022-09-20T05:37:52.281Z,89.39
2022-09-20T05:38:52.287Z,89.29
2022-09-20T05:39:52.291Z,89.48
2022-09-20T05:40:52.303Z,90.53
2022-09-20T05:41:52.311Z,91.00
2022-09-20T05:42:52.384Z,91.19
2022-09-20T05:43:52.330Z,91.00
2022-09-20T05:44:52.336Z,90.72
2022-09-20T05:45:52.453Z,91.28
2022-09-20T05:46:52.383Z,91.95
2022-09-20T05:47:52.361Z,92.71
2022-09-20T05:48:52.372Z,93.27
2022-09-20T05:49:52.382Z,92.80
2022-09-20T05:50:55.430Z,92.14
2022-09-20T05:51:52.409Z,92.90
2022-09-20T05:52:52.403Z,93.37
2022-09-20T05:53:52.478Z,92.80
2022-09-20T05:54:52.426Z,93.27
2022-09-20T05:55:52.433Z,93.84
2022-09-20T05:56:52.443Z,94.13
2022-09-20T05:57:52.450Z,94.51
2022-09-20T05:58:52.453Z,95.93
2022-09-20T05:59:52.460Z,96.41
2022-09-20T06:00:52.615Z,96.59
2022-09-20T06:01:52.481Z,96.31
2022-09-20T06:02:52.512Z,96.50
2022-09-20T06:03:52.494Z,96.03
2022-09-20T06:04:52.499Z,95.93
2022-09-20T06:05:52.513Z,95.36
2022-09-20T06:06:52.516Z,95.07
2022-09-20T06:07:52.528Z,94.79
2022-09-20T06:08:52.594Z,95.55
2022-09-20T06:09:52.558Z,95.74
2022-09-20T06:10:52.548Z,95.84
2022-09-20T06:11:52.559Z,96.59
2022-09-20T06:12:52.568Z,96.97
2022-09-20T06:13:52.575Z,97.54
2022-09-20T06:14:52.585Z,98.02
2022-09-20T06:15:52.593Z,98.96
2022-09-20T06:16:52.670Z,99.15
2022-09-20T06:17:52.609Z,99.63
2022-09-20T06:18:52.645Z,99.99
2022-09-20T06:19:52.626Z,99.99
2022-09-20T06:20:52.636Z,99.99
2022-09-20T06:21:52.646Z,99.99
2022-09-20T06:22:52.660Z,99.99
2022-09-20T06:23:52.741Z,99.99
2022-09-20T06:24:52.666Z,99.53
2022-09-20T06:25:52.772Z,99.15
2022-09-20T06:26:52.683Z,98.49
2022-09-20T06:27:52.690Z,97.92
2022-09-20T06:28:57.619Z,97.69
2022-09-20T06:29:52.706Z,97.59
2022-09-20T06:30:52.742Z,97.88
2022-09-20T06:31:52.722Z,98.63
2022-09-20T06:32:52.733Z,98.44
2022-09-20T06:33:52.741Z,99.06
2022-09-20T06:34:52.775Z,98.49
2022-09-20T06:35:55.767Z,98.39
2022-09-20T06:36:52.771Z,98.39
2022-09-20T06:37:52.774Z,98.73
2022-09-20T06:38:52.841Z,99.25
2022-09-20T06:39:52.787Z,99.06
2022-09-20T06:40:52.800Z,99.49
2022-09-20T06:41:52.809Z,99.49
2022-09-20T06:42:52.821Z,99.20
2022-09-20T06:43:52.824Z,98.92
2022-09-20T06:44:52.832Z,99.11
2022-09-20T06:45:52.916Z,98.25
2022-09-20T06:46:52.849Z,98.73
2022-09-20T06:47:52.871Z,97.59
2022-09-20T06:48:52.869Z,97.59
2022-09-20T06:49:52.875Z,99.20
2022-09-20T06:50:52.903Z,99.99
2022-09-20T06:51:52.899Z,99.99
2022-09-20T06:52:52.903Z,98.73
2022-09-20T06:53:52.935Z,94.08
2022-09-20T06:54:52.917Z,92.04
2022-09-20T06:55:52.932Z,89.48
2022-09-20T06:56:52.932Z,87.96
2022-09-20T06:57:52.940Z,89.86
2022-09-20T06:58:52.950Z,88.20
2022-09-20T06:59:52.958Z,86.25
2022-09-20T07:00:52.981Z,85.21
2022-09-20T07:01:53.072Z,86.16
2022-09-20T07:02:52.983Z,86.63
2022-09-20T07:03:52.997Z,88.62
2022-09-20T07:04:52.997Z,88.62
2022-09-20T07:05:53.015Z,87.87
2022-09-20T07:06:53.041Z,87.87
2022-09-20T07:07:53.025Z,87.20
2022-09-20T07:08:53.137Z,87.96
2022-09-20T07:09:53.144Z,85.97
2022-09-20T07:10:53.063Z,80.94
2022-09-20T07:11:53.063Z,78.09
2022-09-20T07:12:53.067Z,79.61
2022-09-20T07:13:53.079Z,81.41
2022-09-20T07:14:53.084Z,81.88
2022-09-20T07:15:53.095Z,82.65
2022-09-20T07:16:53.173Z,82.65
2022-09-20T07:17:53.113Z,82.36
2022-09-20T07:18:53.125Z,82.55
2022-09-20T07:19:53.130Z,84.30
2022-09-20T07:20:53.136Z,82.21
2022-09-20T07:21:53.148Z,83.16
2022-09-20T07:22:53.180Z,83.26
2022-09-20T07:23:53.163Z,82.40
2022-09-20T07:24:53.171Z,82.50
2022-09-20T07:25:53.182Z,83.07
2022-09-20T07:26:53.199Z,83.73
2022-09-20T07:27:53.197Z,84.01
2022-09-20T07:28:53.207Z,83.45
2022-09-20T07:29:53.213Z,84.49
2022-09-20T07:30:53.223Z,84.21
2022-09-20T07:31:53.333Z,84.87
2022-09-20T07:32:53.238Z,84.49
2022-09-20T07:33:53.256Z,85.72
2022-09-20T07:34:53.258Z,86.53
2022-09-20T07:35:53.266Z,85.49
2022-09-20T07:36:53.279Z,85.01
2022-09-20T07:37:53.283Z,83.97
2022-09-20T07:38:53.447Z,83.87
2022-09-20T07:39:53.307Z,84.91
2022-09-20T07:40:53.311Z,85.01
2022-09-20T07:41:53.317Z,86.24
2022-09-20T07:42:56.215Z,86.05
2022-09-20T07:43:53.339Z,85.86
2022-09-20T07:44:53.342Z,87.10
2022-09-20T07:45:53.396Z,87.76
2022-09-20T07:46:53.363Z,88.05
2022-09-20T07:47:53.380Z,88.34
2022-09-20T07:48:53.381Z,89.09
2022-09-20T07:49:53.389Z,87.19
2022-09-20T07:50:53.401Z,86.91
2022-09-20T07:51:53.407Z,88.15
2022-09-20T07:52:53.415Z,85.96
2022-09-20T07:53:53.475Z,86.24
2022-09-20T07:54:53.452Z,88.24
2022-09-20T07:55:53.444Z,87.10
2022-09-20T07:56:53.449Z,84.34
2022-09-20T07:57:53.461Z,85.39
2022-09-20T07:58:53.468Z,84.48
2022-09-20T07:59:53.477Z,82.49
2022-09-20T08:00:53.557Z,83.72
2022-09-20T08:01:53.561Z,83.91
2022-09-20T08:02:53.507Z,82.49
2022-09-20T08:03:53.511Z,81.49
2022-09-20T08:04:53.523Z,82.29
2022-09-20T08:05:53.531Z,83.91
2022-09-20T08:06:53.541Z,82.81
2022-09-20T08:07:53.551Z,84.14
2022-09-20T08:08:53.558Z,81.58
2022-09-20T08:09:53.567Z,78.44
2022-09-20T08:10:53.609Z,75.96
2022-09-20T08:11:53.649Z,76.73
2022-09-20T08:14:17.822Z,77.64
2022-09-20T08:14:53.621Z,78.69
2022-09-20T08:15:53.624Z,80.44
2022-09-20T08:16:53.739Z,79.68
2022-09-20T08:17:53.648Z,80.34
2022-09-20T08:18:53.648Z,79.77
2022-09-20T08:19:53.667Z,79.49
2022-09-20T08:20:53.693Z,79.20
2022-09-20T08:21:53.680Z,78.53
2022-09-20T08:23:19.491Z,78.25
2022-09-20T08:23:53.699Z,78.69
2022-09-20T08:24:53.705Z,78.21
2022-09-20T08:25:53.716Z,77.73
2022-09-20T08:26:53.756Z,80.11
2022-09-20T08:27:53.738Z,81.35
2022-09-20T08:28:53.744Z,81.20
2022-09-20T08:29:53.759Z,79.39
2022-09-20T08:30:53.800Z,78.91
2022-09-20T08:31:53.849Z,79.24
2022-09-20T08:32:53.784Z,78.96
2022-09-20T08:33:53.849Z,77.72
2022-09-20T08:34:53.803Z,78.38
2022-09-20T08:35:57.700Z,77.43
2022-09-20T08:36:53.822Z,77.81
2022-09-20T08:37:54.194Z,77.05
2022-09-20T08:39:57.913Z,77.34
2022-09-20T08:40:53.884Z,79.66
2022-09-20T08:41:53.871Z,78.23
2022-09-20T08:42:53.901Z,77.00
2022-09-20T08:43:53.993Z,76.33
2022-09-20T08:44:59.633Z,76.90
2022-09-20T08:45:54.106Z,77.85
2022-09-20T08:46:53.921Z,77.43
2022-09-20T08:47:58.393Z,79.09
2022-09-20T08:48:53.939Z,78.61
2022-09-20T08:49:56.753Z,78.42
2022-09-20T08:50:53.967Z,78.04
2022-09-20T08:51:53.976Z,76.90
2022-09-20T08:52:59.813Z,77.85
2022-09-20T08:53:53.997Z,77.47
2022-09-20T08:54:54.006Z,77.19
2022-09-20T08:55:54.018Z,76.71
2022-09-20T08:56:54.028Z,76.57
2022-09-20T08:57:54.065Z,78.61
2022-09-20T08:58:54.067Z,78.23
2022-09-20T08:59:54.055Z,77.19
2022-09-20T09:00:54.136Z,78.37
2022-09-20T09:01:54.086Z,78.59
2022-09-20T09:02:54.088Z,75.70
2022-09-20T09:03:54.096Z,74.99
2022-09-20T09:04:54.109Z,77.70
2022-09-20T09:05:54.120Z,77.42
2022-09-20T09:06:54.128Z,76.94
2022-09-20T09:07:54.144Z,76.56
2022-09-20T09:08:54.163Z,76.40
2022-09-20T09:09:54.169Z,74.37
2022-09-20T09:10:54.298Z,74.46
2022-09-20T09:11:54.189Z,74.94
2022-09-20T09:12:54.198Z,71.32
2022-09-20T09:13:54.284Z,74.37
2022-09-20T09:14:54.250Z,74.37
2022-09-20T09:15:54.237Z,75.04
2022-09-20T09:16:54.294Z,74.37
2022-09-20T09:17:54.246Z,74.56
2022-09-20T09:18:54.269Z,75.42
2022-09-20T09:19:54.272Z,75.13
2022-09-20T09:20:54.283Z,74.79
2022-09-20T09:21:54.297Z,75.07
2022-09-20T09:22:54.303Z,74.60
2022-09-20T09:23:54.313Z,73.07
2022-09-20T09:24:54.323Z,73.07
2022-09-20T09:25:54.340Z,74.50
2022-09-20T09:26:54.349Z,73.45
2022-09-20T09:27:54.357Z,71.73
2022-09-20T09:28:54.375Z,73.49
2022-09-20T09:29:54.387Z,73.21
2022-09-20T09:30:54.417Z,72.06
2022-09-20T09:31:54.513Z,70.86
2022-09-20T09:32:54.416Z,72.96
2022-09-20T09:33:54.426Z,71.04
2022-09-20T09:34:54.443Z,70.95
2022-09-20T09:35:54.459Z,70.09
2022-09-20T09:36:54.484Z,70.34
2022-09-20T09:37:54.483Z,70.92
2022-09-20T09:38:54.589Z,72.63
2022-09-20T09:39:54.501Z,71.68
2022-09-20T09:40:54.518Z,70.97
2022-09-20T09:41:54.521Z,72.41
2022-09-20T09:42:54.539Z,72.72
2022-09-20T09:43:54.552Z,71.91
2022-09-20T09:44:54.558Z,72.09
2022-09-20T09:45:54.624Z,70.67
2022-09-20T09:46:54.613Z,67.90
2022-09-20T09:47:54.595Z,66.18
2022-09-20T09:48:54.705Z,67.33
2022-09-20T09:49:59.720Z,68.51
2022-09-20T09:50:54.631Z,68.12
2022-09-20T09:51:54.643Z,68.12
2022-09-20T09:52:54.656Z,66.60
2022-09-20T09:53:54.670Z,66.41
2022-09-20T09:54:54.680Z,66.78
2022-09-20T09:55:54.696Z,67.80
2022-09-20T09:56:54.705Z,65.80
2022-09-20T09:57:54.721Z,64.69
2022-09-20T09:58:54.797Z,59.09
2022-09-20T09:59:54.745Z,58.58
2022-09-20T10:00:54.841Z,63.57
2022-09-20T10:01:54.876Z,65.07
2022-09-20T10:02:54.808Z,63.39
2022-09-20T10:03:54.795Z,55.62
2022-09-20T10:04:54.806Z,58.48
2022-09-20T10:05:54.819Z,62.21
2022-09-20T10:06:54.859Z,65.39
2022-09-20T10:07:54.852Z,64.65
2022-09-20T10:08:54.958Z,58.36
2022-09-20T10:09:54.873Z,60.27
2022-09-20T10:10:54.883Z,62.84
2022-09-20T10:11:54.925Z,63.10
2022-09-20T10:12:54.923Z,63.70
2022-09-20T10:13:54.999Z,59.51
2022-09-20T10:14:54.942Z,62.84
2022-09-20T10:15:54.958Z,64.53
2022-09-20T10:16:55.022Z,65.67
2022-09-20T10:17:54.974Z,65.67
2022-09-20T10:18:55.051Z,62.81
2022-09-20T10:19:55.004Z,59.66
2022-09-20T10:20:55.018Z,59.95
2022-09-20T10:21:55.031Z,61.86
2022-09-20T10:23:24.186Z,60.61
2022-09-20T10:24:03.990Z,61.29
2022-09-20T10:24:55.073Z,60.84
2022-09-20T10:25:55.090Z,61.32
2022-09-20T10:26:55.105Z,62.52
2022-09-20T10:27:55.111Z,58.70
2022-09-20T10:28:55.201Z,60.24
2022-09-20T10:29:55.144Z,62.81
2022-09-20T10:30:55.202Z,64.56
2022-09-20T10:31:55.167Z,63.20
2022-09-20T10:32:55.186Z,63.48
2022-09-20T10:33:55.194Z,65.14
2022-09-20T10:34:55.230Z,62.27
2022-09-20T10:35:55.232Z,58.14
2022-09-20T10:36:55.245Z,60.61
2022-09-20T10:37:55.248Z,65.23
2022-09-20T10:38:55.260Z,65.04
2022-09-20T10:39:55.374Z,63.13
2022-09-20T10:40:55.285Z,61.32
2022-09-20T10:41:55.310Z,60.74
2022-09-20T10:42:55.322Z,64.28
2022-09-20T10:43:55.382Z,64.15
2022-09-20T10:44:55.345Z,64.37
2022-09-20T10:46:55.423Z,63.42
2022-09-20T10:47:55.388Z,63.26
2022-09-20T10:48:55.398Z,62.90
2022-09-20T10:49:55.424Z,61.82
2022-09-20T10:50:55.452Z,63.19
2022-09-20T10:51:55.439Z,62.30
2022-09-20T10:52:55.466Z,62.01
2022-09-20T10:53:55.583Z,59.72
2022-09-20T10:54:55.485Z,61.06
2022-09-20T10:55:55.501Z,60.30
2022-09-20T10:56:55.515Z,59.53
2022-09-20T10:57:55.527Z,61.51
2022-09-20T10:58:55.617Z,61.98
2022-09-20T10:59:55.557Z,61.51
2022-09-20T11:00:55.608Z,61.72
2022-09-20T11:01:55.689Z,61.09
2022-09-20T11:02:55.597Z,61.66
2022-09-20T11:03:55.616Z,60.93
2022-09-20T11:04:55.633Z,60.23
2022-09-20T11:05:55.642Z,59.75
2022-09-20T11:06:55.681Z,60.45
2022-09-20T11:07:55.674Z,54.55
2022-09-20T11:08:55.704Z,49.29
2022-09-20T11:09:55.700Z,55.51
2022-09-20T11:10:55.715Z,57.48
2022-09-20T11:11:55.734Z,58.61
2022-09-20T11:12:55.744Z,61.57
2022-09-20T11:13:55.859Z,60.99
2022-09-20T11:14:55.797Z,58.54
2022-09-20T11:15:55.814Z,56.94
2022-09-20T11:16:55.887Z,57.70
2022-09-20T11:17:55.819Z,57.29
2022-09-20T11:18:55.835Z,58.28
2022-09-20T11:19:55.857Z,56.82
2022-09-20T11:20:55.868Z,58.06
2022-09-20T11:21:55.886Z,57.77
2022-09-20T11:22:55.928Z,58.25
2022-09-20T11:23:55.915Z,58.06
2022-09-20T11:24:55.929Z,58.95
2022-09-20T11:25:55.941Z,59.14
2022-09-20T11:26:55.959Z,58.86
2022-09-20T11:27:55.979Z,56.75
2022-09-20T11:28:55.993Z,56.84
2022-09-20T11:29:56.004Z,56.75
2022-09-20T11:30:56.019Z,56.39
2022-09-20T11:31:56.135Z,48.38
2022-09-20T11:32:56.051Z,50.60
2022-09-20T11:33:56.146Z,50.96
2022-09-20T11:34:56.085Z,48.85
2022-09-20T11:35:56.097Z,50.51
2022-09-20T11:36:56.119Z,48.78
2022-09-20T11:37:56.133Z,51.20
2022-09-20T11:38:56.186Z,50.79
2022-09-20T11:39:56.169Z,51.75
2022-09-20T11:40:56.179Z,51.18
2022-09-20T11:41:56.204Z,50.70
2022-09-20T11:42:56.211Z,47.61
2022-09-20T11:43:56.225Z,48.78
2022-09-20T11:44:56.244Z,49.36
2022-09-20T11:45:56.322Z,50.24
2022-09-20T11:46:56.274Z,41.16
2022-09-20T11:47:56.294Z,36.65
2022-09-20T11:48:56.311Z,43.05
2022-09-20T11:49:56.336Z,46.34
2022-09-20T11:50:56.342Z,43.46
2022-09-20T11:51:56.356Z,43.46
2022-09-20T11:52:56.372Z,43.48
2022-09-20T11:53:56.390Z,42.98
2022-09-20T11:54:56.431Z,39.72
2022-09-20T11:55:56.427Z,42.21
2022-09-20T11:56:56.444Z,43.82
2022-09-20T11:57:56.458Z,45.83
2022-09-20T11:58:56.577Z,45.86
2022-09-20T11:59:56.523Z,45.47
2022-09-20T12:00:56.511Z,45.78
2022-09-20T12:01:56.590Z,40.31
2022-09-20T12:02:56.673Z,42.30
2022-09-20T12:04:14.236Z,43.84
2022-09-20T12:04:56.584Z,43.49
2022-09-20T12:05:56.593Z,44.54
2022-09-20T12:06:56.612Z,46.39
2022-09-20T12:07:56.636Z,45.83
2022-09-20T12:08:56.644Z,45.67
2022-09-20T12:09:56.664Z,41.23
2022-09-20T12:10:56.703Z,37.87
2022-09-20T12:11:56.694Z,34.98
2022-09-20T12:12:56.712Z,36.21
2022-09-20T12:13:56.731Z,36.11
2022-09-20T12:14:56.745Z,32.18
2022-09-20T12:15:56.773Z,29.61
2022-09-20T12:16:56.900Z,26.74
2022-09-20T12:17:56.799Z,27.90
2022-09-20T12:18:56.815Z,32.52
2022-09-20T12:19:56.831Z,32.70
2022-09-20T12:20:56.863Z,32.68
2022-09-20T12:21:56.876Z,33.92
2022-09-20T12:22:56.884Z,30.94
2022-09-20T12:23:56.903Z,31.80
2022-09-20T12:24:56.921Z,32.86
2022-09-20T12:25:56.937Z,35.17
2022-09-20T12:26:57.025Z,35.02
2022-09-20T12:27:56.970Z,28.78
2022-09-20T12:28:56.989Z,25.99
2022-09-20T12:29:57.005Z,27.90
2022-09-20T12:30:57.036Z,27.92
2022-09-20T12:31:57.112Z,27.98
2022-09-20T12:32:57.058Z,30.46
2022-09-20T12:33:57.072Z,30.68
2022-09-20T12:34:57.089Z,31.07
2022-09-20T12:35:57.107Z,30.22
2022-09-20T12:36:57.127Z,27.44
2022-09-20T12:37:57.144Z,29.05
2022-09-20T12:38:57.263Z,33.27
2022-09-20T12:39:57.243Z,29.53
2022-09-20T12:40:57.196Z,30.87
2022-09-20T12:41:57.209Z,32.49
2022-09-20T12:42:57.249Z,32.10
2022-09-20T12:43:57.247Z,30.12
2022-09-20T12:44:57.262Z,31.95
2022-09-20T12:46:02.883Z,31.56
2022-09-20T12:46:57.294Z,30.33
2022-09-20T12:47:57.316Z,29.26
2022-09-20T12:48:57.346Z,32.89
2022-09-20T12:49:57.348Z,36.63
2022-09-20T12:50:57.366Z,38.09
2022-09-20T12:51:57.382Z,35.86
2022-09-20T12:52:57.640Z,32.60
2022-09-20T12:53:57.422Z,29.83
2022-09-20T12:55:00.960Z,27.98
2022-09-20T12:55:57.452Z,30.68